CheckWX is a tool to help pilots better visualize weather data.  It is not intended as a substitute for an official pre-flight weather briefing.

10:10:08 UTC

VTPM METAR
Mae Sot Airport
Thailand
Current

1 hour ago

VTPM 290900Z 25007KT 5000 HZ NSC 34/14 Q1008 NOSIG
Observed
Feb-29 @ 09:00 UTC
Wind
  • 250° at 7 KTS
Visibility
5,000 meters
Flight Rules
MVFR
Conditions
Haze
Cloud Levels
  • Clear skies
Temperature
34°C / 93°F
Dewpoint
14°C / 57°F
Humidity
30%
Altimeter
29.76" Hg
Pressure
1007.92 hPa
Previous

2 hours ago

VTPM 290800Z 27003KT 200V350 5000 HZ NSC 35/11 Q1008 NOSIG
Observed
Feb-29 @ 08:00 UTC
Wind
  • 270° at 3 KTS
Visibility
5,000 meters
Flight Rules
MVFR
Conditions
Haze
Cloud Levels
  • Clear skies
Temperature
35°C / 95°F
Dewpoint
11°C / 52°F
Humidity
23%
Altimeter
29.76" Hg
Pressure
1007.92 hPa
Previous

3 hours ago

VTPM 290700Z 23004KT 5000 HZ NSC 34/11 Q1009 BECMG 7000 NSW
Observed
Feb-29 @ 07:00 UTC
Wind
  • 230° at 4 KTS
Visibility
5,000 meters
Flight Rules
MVFR
Conditions
Haze
Cloud Levels
  • Clear skies
Temperature
34°C / 93°F
Dewpoint
11°C / 52°F
Humidity
24%
Altimeter
29.79" Hg
Pressure
1008.92 hPa